Terminal Aerodrome Forecast
Issued by NWS North Platte, NE

Home | Current Version | Previous Version | Text Only | Print | Product List | Glossary Off
Versions: 1 2 3 4 5 6 7 8 9 10 11 12 13

000
FTUS43 KLBF 151720
TAFVTN
TAF
KVTN 151720Z 1518/1618 26010KT P6SM SCT250
     FM160000 25008KT P6SM SCT250
     FM160800 27006KT P6SM FEW250
     FM161200 31007KT P6SM BKN250
     FM161600 34009KT P6SM SCT100 BKN200=

USA.gov is the U.S. government's official web portal to all federal, state and local government web resources and services.